Time;durP1;ratioP1;P1;durP2;ratioP2;P2;SDS_P1;SDS_P2;PMS_P1;PMS_P2;Temp;Humidity;BMP_temperature;BMP_pressure;BME280_temperature;BME280_humidity;BME280_pressure;Samples;Min_cycle;Max_cycle;Signal;HPM_P1;HPM_P2
2022/05/26 00:00:42;;;;;;;6.50;5.13;;;16.00;75.80;;;;;;4997715;28;95471;-60
2022/05/26 00:03:13;;;;;;;6.43;5.82;;;16.00;73.80;;;;;;4979423;28;97416;-59
2022/05/26 00:05:46;;;;;;;6.90;6.15;;;16.00;75.90;;;;;;4997821;28;94924;-59
2022/05/26 00:08:20;;;;;;;6.63;5.85;;;16.00;76.00;;;;;;4998426;28;95312;-58
2022/05/26 00:10:54;;;;;;;6.63;5.85;;;16.00;76.00;;;;;;4997906;28;96346;-57
2022/05/26 00:13:27;;;;;;;7.30;6.47;;;16.00;76.00;;;;;;4996744;28;95325;-59
2022/05/26 00:16:01;;;;;;;8.68;6.65;;;16.10;76.10;;;;;;4997625;28;94930;-58
2022/05/26 00:18:34;;;;;;;6.82;6.13;;;16.00;76.00;;;;;;4997973;28;95240;-58
2022/05/26 00:21:08;;;;;;;6.47;5.68;;;16.00;76.00;;;;;;4996607;28;96039;-58
2022/05/26 00:23:42;;;;;;;6.00;5.38;;;16.10;76.00;;;;;;4996972;28;95177;-59
2022/05/26 00:26:14;;;;;;;7.43;6.63;;;16.10;76.10;;;;;;4979568;28;95069;-59
2022/05/26 00:28:46;;;;;;;6.40;4.95;;;16.10;76.10;;;;;;4997524;28;95195;-58
2022/05/26 00:31:18;;;;;;;6.90;6.15;;;16.00;76.00;;;;;;4997035;28;95910;-59
2022/05/26 00:33:49;;;;;;;6.20;5.45;;;16.00;76.10;;;;;;4979566;28;97673;-60
2022/05/26 00:36:39;;;;;;;6.53;5.93;;;16.00;76.10;;;;;;4997230;28;94935;-59
2022/05/26 00:39:16;;;;;;;6.95;6.15;;;16.00;76.10;;;;;;4997412;28;95166;-60
2022/05/26 00:41:52;;;;;;;6.80;5.93;;;16.00;76.10;;;;;;5000444;28;95898;-60
2022/05/26 00:44:27;;;;;;;6.10;5.50;;;16.10;76.10;;;;;;5000363;28;95072;-60
2022/05/26 00:47:21;;;;;;;5.63;4.95;;;16.10;76.10;;;;;;5000911;28;95019;-60
2022/05/26 00:50:13;;;;;;;8.57;6.07;;;16.10;76.10;;;;;;5001537;28;95235;-60
2022/05/26 00:52:53;;;;;;;8.93;5.65;;;16.10;76.10;;;;;;4984117;28;94903;-59
2022/05/26 00:55:32;;;;;;;5.50;5.00;;;16.10;76.20;;;;;;5001135;28;96033;-59
2022/05/26 00:58:48;;;;;;;5.85;4.82;;;16.10;76.30;;;;;;5000886;28;94944;-59
2022/05/26 01:01:20;;;;;;;5.72;5.00;;;16.10;76.40;;;;;;4959247;28;95195;-58
2022/05/26 01:03:57;;;;;;;5.43;4.50;;;16.10;76.40;;;;;;4943069;28;96058;-58
2022/05/26 01:06:40;;;;;;;6.78;5.32;;;16.20;76.60;;;;;;4942569;28;95514;-58
2022/05/26 01:09:12;;;;;;;5.18;4.55;;;16.20;76.50;;;;;;4958884;28;95221;-57
2022/05/26 01:11:45;;;;;;;7.15;5.25;;;16.20;76.60;;;;;;4958997;28;95387;-51
2022/05/26 01:14:32;;;;;;;6.47;5.35;;;16.20;76.70;;;;;;4942565;28;96064;-48
2022/05/26 01:17:25;;;;;;;5.93;4.55;;;16.20;76.90;;;;;;4956868;28;95380;-50
2022/05/26 01:20:14;;;;;;;5.57;4.85;;;16.20;76.70;;;;;;4958244;28;95007;-54
2022/05/26 01:23:02;;;;;;;4.53;4.13;;;16.20;76.90;;;;;;4958202;28;95541;-53
2022/05/26 01:26:04;;;;;;;5.50;4.40;;;16.20;77.10;;;;;;4958240;28;96113;-51
2022/05/26 01:29:10;;;;;;;4.47;3.83;;;16.20;77.20;;;;;;4958038;28;95347;-56
2022/05/26 01:32:14;;;;;;;5.13;4.07;;;16.30;77.00;;;;;;4945202;28;95096;-53
2022/05/26 01:35:13;;;;;;;4.70;3.70;;;16.40;76.80;;;;;;4971552;28;95287;-55
2022/05/26 01:38:21;;;;;;;3.08;2.85;;;16.50;76.80;;;;;;4981454;28;96268;-57
2022/05/26 01:41:12;;;;;;;3.58;3.17;;;16.50;76.90;;;;;;4999583;28;95359;-57
2022/05/26 01:43:44;;;;;;;;;;;16.60;76.90;;;;;;5000174;28;95016;-53
2022/05/26 01:46:40;;;;;;;3.13;2.83;;;16.60;76.90;;;;;;5001905;28;95068;-56
2022/05/26 01:49:16;;;;;;;3.47;2.83;;;16.80;76.90;;;;;;5000633;28;94970;-58
2022/05/26 01:51:55;;;;;;;3.72;2.75;;;16.80;77.10;;;;;;4999495;28;94929;-56
2022/05/26 01:54:52;;;;;;;3.10;2.53;;;16.90;77.00;;;;;;5000693;28;94990;-59
2022/05/26 01:57:52;;;;;;;3.20;2.75;;;17.00;77.30;;;;;;5000933;28;95166;-58
2022/05/26 02:00:24;;;;;;;3.42;3.13;;;17.10;77.30;;;;;;4999639;28;96392;-56
2022/05/26 02:03:15;;;;;;;3.33;3.03;;;17.20;77.40;;;;;;5000203;28;95232;-54
2022/05/26 02:05:55;;;;;;;3.13;2.58;;;17.30;77.80;;;;;;4999596;28;94920;-51
2022/05/26 02:08:42;;;;;;;4.53;3.65;;;17.40;78.20;;;;;;4999719;28;95215;-55
2022/05/26 02:11:20;;;;;;;3.22;3.03;;;17.40;78.30;;;;;;4999091;28;96125;-52
2022/05/26 02:14:19;;;;;;;3.63;3.25;;;17.50;78.30;;;;;;4998943;28;95555;-56
2022/05/26 02:17:07;;;;;;;4.35;3.15;;;17.50;78.50;;;;;;4997813;28;95427;-51
2022/05/26 02:19:47;;;;;;;3.40;3.00;;;17.60;79.10;;;;;;4999095;28;95127;-55
2022/05/26 02:22:22;;;;;;;3.17;2.88;;;17.60;78.60;;;;;;4998543;28;95826;-55
2022/05/26 02:25:03;;;;;;;3.58;2.78;;;17.60;78.80;;;;;;4999151;28;95814;-59
2022/05/26 02:27:37;;;;;;;3.08;2.78;;;17.70;78.70;;;;;;4999045;28;94956;-57
2022/05/26 02:30:12;;;;;;;3.13;2.65;;;17.70;78.60;;;;;;4998218;28;95403;-56
2022/05/26 02:32:54;;;;;;;3.15;2.85;;;17.70;78.80;;;;;;4997595;28;95910;-56
2022/05/26 02:35:31;;;;;;;4.68;3.45;;;17.70;78.90;;;;;;4998800;28;95228;-50
2022/05/26 02:38:10;;;;;;;3.20;2.90;;;17.70;78.80;;;;;;4998970;28;95188;-52
2022/05/26 02:40:44;;;;;;;3.53;2.83;;;17.80;78.90;;;;;;4999011;28;94949;-54
2022/05/26 02:43:21;;;;;;;2.90;2.70;;;17.80;78.80;;;;;;4998515;28;95870;-52
2022/05/26 02:46:17;;;;;;;3.13;2.75;;;17.80;78.80;;;;;;4998935;28;95226;-56
2022/05/26 02:48:59;;;;;;;2.85;2.40;;;17.80;78.70;;;;;;4999848;28;95037;-54
2022/05/26 02:51:39;;;;;;;4.18;3.28;;;17.80;78.70;;;;;;4999621;28;95424;-55
2022/05/26 02:54:45;;;;;;;3.37;2.83;;;17.80;78.70;;;;;;4999508;28;95837;-57
2022/05/26 02:57:27;;;;;;;3.15;2.85;;;17.90;78.80;;;;;;4998982;28;95227;-56
2022/05/26 03:00:16;;;;;;;3.35;2.83;;;17.90;78.60;;;;;;4998864;28;95016;-56
2022/05/26 03:02:57;;;;;;;3.40;3.10;;;17.90;78.60;;;;;;4998338;28;95352;-54
2022/05/26 03:05:51;;;;;;;3.60;2.70;;;17.80;78.50;;;;;;4998297;28;95816;-55
2022/05/26 03:08:27;;;;;;;3.80;2.80;;;17.90;78.50;;;;;;4997488;28;95521;-55
2022/05/26 03:11:13;;;;;;;3.38;3.08;;;17.90;78.50;;;;;;4998385;28;94949;-54
2022/05/26 03:13:46;;;;;;;3.67;3.15;;;17.90;76.60;;;;;;4998609;28;95302;-52
2022/05/26 03:16:19;;;;;;;3.30;3.00;;;17.90;78.50;;;;;;4998072;28;95846;-55
2022/05/26 03:18:52;;;;;;;3.65;2.95;;;17.90;78.60;;;;;;4998090;28;95044;-51
2022/05/26 03:21:23;;;;;;;4.57;3.40;;;17.90;78.40;;;;;;4997787;28;95195;-55
2022/05/26 03:23:58;;;;;;;3.35;2.72;;;17.90;78.30;;;;;;4998504;28;95122;-55
2022/05/26 03:26:31;;;;;;;3.97;2.92;;;17.90;78.30;;;;;;4979906;28;95128;-54
2022/05/26 03:29:05;;;;;;;4.07;3.10;;;17.90;78.10;;;;;;4997827;28;95893;-56
2022/05/26 03:31:36;;;;;;;2.70;2.50;;;17.90;78.10;;;;;;4995920;28;94957;-53
2022/05/26 03:42:38;;;;;;;3.17;2.75;;;18.00;78.40;;;;;;4997946;28;94913;-53
2022/05/26 03:45:10;;;;;;;3.42;2.70;;;18.00;78.40;;;;;;4998274;28;95146;-54
2022/05/26 03:47:42;;;;;;;2.78;2.47;;;18.00;78.40;;;;;;4998498;28;95409;-54
2022/05/26 03:50:17;;;;;;;3.28;2.60;;;18.00;78.30;;;;;;4998696;28;95449;-52
2022/05/26 03:52:51;;;;;;;2.95;2.53;;;18.00;78.30;;;;;;4998877;28;94933;-52
2022/05/26 03:55:25;;;;;;;3.08;2.53;;;18.00;78.30;;;;;;4998003;28;95272;-53
2022/05/26 03:57:59;;;;;;;3.45;2.88;;;18.00;78.30;;;;;;4998467;28;95842;-55
2022/05/26 04:00:31;;;;;;;3.63;2.60;;;18.00;78.30;;;;;;4997211;28;95234;-54
2022/05/26 04:03:06;;;;;;;3.53;2.72;;;18.10;76.40;;;;;;4997900;28;94917;-51
2022/05/26 04:05:38;;;;;;;3.22;2.63;;;18.00;78.10;;;;;;4998566;28;95138;-51
2022/05/26 04:08:10;;;;;;;3.65;2.60;;;18.00;78.20;;;;;;4997739;28;95864;-54
2022/05/26 04:10:40;;;;;;;;;;;18.00;78.20;;;;;;4997918;28;96054;-54
2022/05/26 04:13:14;;;;;;;2.70;2.50;;;18.00;78.10;;;;;;4998957;28;95029;-50
2022/05/26 04:15:46;;;;;;;3.22;2.88;;;18.00;78.10;;;;;;4999992;28;95301;-51
2022/05/26 04:18:19;;;;;;;2.53;2.33;;;18.00;78.00;;;;;;5000940;28;95810;-52
2022/05/26 04:20:51;;;;;;;4.15;3.28;;;18.00;78.00;;;;;;5000500;28;95228;-51
2022/05/26 04:23:23;;;;;;;3.28;2.67;;;18.00;78.00;;;;;;5000890;28;95022;-52
2022/05/26 04:25:59;;;;;;;2.47;1.98;;;18.00;77.90;;;;;;5001289;28;95233;-53
2022/05/26 04:28:36;;;;;;;2.95;2.75;;;18.00;77.90;;;;;;5000748;28;95829;-50
2022/05/26 04:31:08;;;;;;;2.78;2.50;;;18.00;77.80;;;;;;5000334;28;95840;-48
2022/05/26 04:33:39;;;;;;;4.43;2.65;;;18.00;77.80;;;;;;5000960;28;95119;-53
2022/05/26 04:36:11;;;;;;;2.83;2.50;;;18.00;77.80;;;;;;5001097;28;95199;-54
2022/05/26 04:38:45;;;;;;;2.85;2.40;;;17.90;77.80;;;;;;5000018;28;96438;-51
2022/05/26 04:41:18;;;;;;;2.72;2.35;;;18.00;77.90;;;;;;5000100;28;95527;-52
2022/05/26 04:43:50;;;;;;;3.08;2.78;;;18.00;77.90;;;;;;5001009;28;95046;-53
2022/05/26 04:46:21;;;;;;;2.97;2.78;;;18.00;77.90;;;;;;4984503;28;95135;-49
2022/05/26 04:48:54;;;;;;;3.42;2.65;;;18.00;77.90;;;;;;5001401;28;95055;-53
2022/05/26 04:51:27;;;;;;;3.38;2.67;;;17.90;77.80;;;;;;5000857;28;95377;-52
2022/05/26 04:53:59;;;;;;;2.88;2.67;;;17.90;77.80;;;;;;5001657;28;95076;-52
2022/05/26 04:56:31;;;;;;;3.65;2.47;;;17.90;77.80;;;;;;5001182;28;95235;-51
2022/05/26 04:59:07;;;;;;;2.92;2.65;;;17.90;77.80;;;;;;5000414;28;95819;-50
2022/05/26 05:01:38;;;;;;;3.67;2.30;;;17.90;77.90;;;;;;4999266;28;95243;-49
2022/05/26 05:04:11;;;;;;;3.03;2.58;;;17.90;77.80;;;;;;5000705;28;94924;-52
2022/05/26 05:06:43;;;;;;;2.88;2.65;;;17.90;77.80;;;;;;5000689;28;95012;-53
2022/05/26 05:09:14;;;;;;;3.05;2.60;;;17.90;77.80;;;;;;4999028;28;95929;-51
2022/05/26 05:11:47;;;;;;;2.78;2.58;;;17.90;77.80;;;;;;4999328;28;95819;-53
2022/05/26 05:14:21;;;;;;;2.67;2.20;;;17.90;75.90;;;;;;5000357;28;94952;-52
2022/05/26 05:16:53;;;;;;;2.80;2.53;;;17.90;77.90;;;;;;4998767;28;95227;-54
2022/05/26 05:19:24;;;;;;;2.65;2.42;;;17.90;77.90;;;;;;4982367;28;95386;-55
2022/05/26 05:22:04;;;;;;;2.78;2.53;;;17.90;77.90;;;;;;4999589;28;95219;-51
2022/05/26 05:24:57;;;;;;;2.67;2.45;;;17.90;77.90;;;;;;5000144;28;94944;-53
2022/05/26 05:27:39;;;;;;;3.10;2.88;;;17.90;77.90;;;;;;5000196;28;95162;-50
2022/05/26 05:30:27;;;;;;;2.92;2.70;;;17.90;78.20;;;;;;4999420;28;95935;-51
2022/05/26 05:33:35;;;;;;;2.95;2.75;;;17.80;78.40;;;;;;4982333;28;95287;-51
2022/05/26 05:36:14;;;;;;;3.83;3.42;;;17.90;78.60;;;;;;4998822;28;95111;-52
2022/05/26 05:38:47;;;;;;;3.45;3.15;;;17.80;78.70;;;;;;5000103;28;95191;-50
2022/05/26 05:41:20;;;;;;;3.13;2.83;;;17.80;78.70;;;;;;4999621;28;96378;-49
2022/05/26 05:43:51;;;;;;;5.70;3.42;;;17.80;78.70;;;;;;4999373;28;95983;-50
2022/05/26 05:46:24;;;;;;;3.13;2.83;;;17.80;78.70;;;;;;5000262;28;94934;-53
2022/05/26 05:48:57;;;;;;;5.20;3.20;;;17.80;78.80;;;;;;5000882;28;95071;-47
2022/05/26 05:51:30;;;;;;;3.03;2.83;;;17.70;78.80;;;;;;4982751;28;96484;-51
2022/05/26 05:54:03;;;;;;;3.13;2.83;;;17.80;78.80;;;;;;5000060;28;95370;-49
2022/05/26 05:56:36;;;;;;;3.55;2.92;;;17.70;78.70;;;;;;4982432;28;95064;-52
2022/05/26 05:59:09;;;;;;;3.70;3.13;;;17.70;78.60;;;;;;4981901;28;95363;-52
2022/05/26 06:01:41;;;;;;;3.67;3.33;;;17.70;78.60;;;;;;4999902;28;94933;-52
2022/05/26 06:04:13;;;;;;;3.45;3.15;;;17.70;78.70;;;;;;4999747;28;94913;-53
2022/05/26 06:06:46;;;;;;;3.53;3.22;;;17.70;78.50;;;;;;5000067;28;95107;-48
2022/05/26 06:09:17;;;;;;;3.90;3.08;;;17.70;78.70;;;;;;4966165;28;95386;-48
2022/05/26 06:11:50;;;;;;;3.30;3.00;;;17.70;78.70;;;;;;4999065;28;96040;-42
2022/05/26 06:14:24;;;;;;;3.40;3.03;;;17.70;78.70;;;;;;4998968;28;95185;-56
2022/05/26 06:16:57;;;;;;;3.42;3.13;;;17.70;79.10;;;;;;4998259;28;94919;-54
2022/05/26 06:19:31;;;;;;;4.97;3.40;;;17.70;79.30;;;;;;4999090;28;95301;-55
2022/05/26 06:22:15;;;;;;;4.43;3.20;;;17.70;79.30;;;;;;4998744;28;95863;-55
2022/05/26 06:24:48;;;;;;;3.40;3.10;;;17.80;79.10;;;;;;4980553;28;95959;-54
2022/05/26 06:30:17;;;;;;;5.30;3.92;;;17.80;79.30;;;;;;4999167;28;95238;-47
2022/05/26 06:38:30;;;;;;;4.32;3.90;;;18.00;78.70;;;;;;4998096;28;94975;-49
2022/05/26 06:43:56;;;;;;;4.22;3.42;;;18.00;78.50;;;;;;4998528;28;95923;-56
2022/05/26 06:46:33;;;;;;;3.75;3.45;;;18.00;78.60;;;;;;4982192;28;95787;-52
2022/05/26 06:49:04;;;;;;;3.90;3.53;;;18.00;78.50;;;;;;4981626;28;95002;-54
2022/05/26 06:51:42;;;;;;;2.78;2.58;;;18.00;78.40;;;;;;4999814;28;95310;-53
2022/05/26 06:54:15;;;;;;;2.95;2.72;;;18.00;78.30;;;;;;4999485;28;95940;-54
2022/05/26 06:56:48;;;;;;;2.70;2.50;;;18.00;78.30;;;;;;4999009;28;95152;-55
2022/05/26 06:59:24;;;;;;;3.75;2.97;;;18.00;78.30;;;;;;4998897;28;95087;-55
2022/05/26 07:01:57;;;;;;;2.88;2.67;;;18.00;78.10;;;;;;4997680;28;95072;-56
2022/05/26 07:04:32;;;;;;;2.90;2.45;;;18.00;78.00;;;;;;4998182;28;96483;-56
2022/05/26 07:07:04;;;;;;;3.75;2.90;;;18.00;78.00;;;;;;4998439;28;95269;-54
2022/05/26 07:09:36;;;;;;;3.55;2.28;;;18.00;78.00;;;;;;4964257;28;94948;-56
2022/05/26 07:12:09;;;;;;;2.63;2.42;;;18.00;77.90;;;;;;4998682;28;95145;-54
2022/05/26 07:14:42;;;;;;;2.65;2.28;;;18.00;77.80;;;;;;4998039;28;95842;-56
2022/05/26 07:17:15;;;;;;;2.50;2.30;;;18.00;77.90;;;;;;4996152;28;95359;-52
2022/05/26 07:19:48;;;;;;;2.92;2.63;;;18.00;77.80;;;;;;4997559;28;95023;-54
2022/05/26 07:22:23;;;;;;;3.17;2.88;;;18.10;78.10;;;;;;4998248;28;95270;-53
2022/05/26 07:24:56;;;;;;;4.03;3.63;;;18.20;78.00;;;;;;4997997;28;95835;-53
2022/05/26 07:27:30;;;;;;;3.75;3.25;;;18.20;77.90;;;;;;4997600;28;95436;-54
2022/05/26 07:30:06;;;;;;;3.83;3.28;;;18.30;78.40;;;;;;4980127;28;95022;-54
2022/05/26 07:32:38;;;;;;;4.53;4.05;;;18.40;77.60;;;;;;4997582;28;95467;-55
2022/05/26 07:35:13;;;;;;;3.90;3.50;;;18.40;77.40;;;;;;4997974;28;95179;-53
2022/05/26 07:43:32;;;;;;;4.55;3.20;;;18.40;77.30;;;;;;4998263;28;95119;-50
2022/05/26 07:46:07;;;;;;;3.55;3.13;;;18.40;77.40;;;;;;4998354;28;95907;-49
2022/05/26 07:48:41;;;;;;;6.43;3.92;;;18.40;77.40;;;;;;4997090;28;95416;-47
2022/05/26 07:51:15;;;;;;;3.75;2.95;;;18.40;77.40;;;;;;4998272;28;95086;-51
2022/05/26 07:53:51;;;;;;;4.25;3.58;;;18.50;77.70;;;;;;4981367;28;95251;-56
2022/05/26 07:56:23;;;;;;;3.45;3.15;;;18.50;77.50;;;;;;4998216;28;95840;-53
2022/05/26 07:58:56;;;;;;;4.75;3.78;;;18.50;77.40;;;;;;4997526;28;95830;-52
2022/05/26 08:01:28;;;;;;;3.88;2.80;;;18.50;77.30;;;;;;4997865;28;94921;-53
2022/05/26 08:03:59;;;;;;;3.58;3.25;;;18.50;77.30;;;;;;4981591;28;95183;-53
2022/05/26 08:06:32;;;;;;;3.47;3.15;;;18.50;77.20;;;;;;4997528;28;96431;-53
2022/05/26 08:09:05;;;;;;;5.20;3.33;;;18.50;77.20;;;;;;4997281;28;95857;-53
2022/05/26 08:11:36;;;;;;;3.38;3.08;;;18.40;77.20;;;;;;4978843;28;95059;-53
2022/05/26 08:14:09;;;;;;;3.22;2.95;;;18.50;77.20;;;;;;4997809;28;95181;-53
2022/05/26 08:16:43;;;;;;;3.30;3.00;;;18.40;77.20;;;;;;4995804;28;95102;-51
2022/05/26 08:19:15;;;;;;;4.20;3.50;;;18.50;77.20;;;;;;4996920;28;95761;-52
2022/05/26 08:21:49;;;;;;;3.67;3.17;;;18.50;77.10;;;;;;4996817;28;95205;-53
2022/05/26 08:24:24;;;;;;;3.90;2.90;;;18.40;77.10;;;;;;4997575;28;95178;-54
2022/05/26 08:26:57;;;;;;;3.45;3.15;;;18.40;77.10;;;;;;4996899;28;95880;-52
2022/05/26 08:29:30;;;;;;;3.30;3.03;;;18.40;77.10;;;;;;4979963;28;95401;-54
2022/05/26 08:32:04;;;;;;;3.63;2.97;;;18.40;77.20;;;;;;4995964;28;95455;-53
2022/05/26 08:34:36;;;;;;;4.15;3.75;;;18.40;77.20;;;;;;4997470;28;95159;-54
2022/05/26 08:37:20;;;;;;;3.30;3.00;;;18.40;77.20;;;;;;4996975;28;95762;-51
2022/05/26 08:39:52;;;;;;;5.05;3.40;;;18.50;77.20;;;;;;4996759;28;95260;-55
2022/05/26 08:42:31;;;;;;;4.18;3.78;;;18.50;77.20;;;;;;4997244;28;94929;-52
2022/05/26 08:45:15;;;;;;;3.78;3.45;;;18.50;77.10;;;;;;4979100;28;95318;-50
2022/05/26 08:47:51;;;;;;;4.80;3.85;;;18.50;77.10;;;;;;4996642;28;95865;-53
2022/05/26 08:50:31;;;;;;;3.95;3.55;;;18.40;77.00;;;;;;4980095;28;95145;-52
2022/05/26 08:53:25;;;;;;;3.95;3.55;;;18.40;76.90;;;;;;4997659;28;94972;-53
2022/05/26 08:56:00;;;;;;;3.80;3.30;;;18.40;76.80;;;;;;4998367;28;95251;-56
2022/05/26 08:58:44;;;;;;;4.55;4.07;;;18.40;76.90;;;;;;4980114;28;95409;-53
2022/05/26 09:01:28;;;;;;;4.55;4.03;;;18.40;76.90;;;;;;4998162;28;95481;-50
2022/05/26 09:04:05;;;;;;;4.50;4.07;;;18.30;76.90;;;;;;4984003;28;94961;-54
2022/05/26 09:15:19;;;;;;;4.73;3.77;;;18.30;76.90;;;;;;4981622;28;94976;-54
2022/05/26 09:17:50;;;;;;;4.45;3.78;;;18.30;76.90;;;;;;4999654;28;95144;-50
2022/05/26 09:20:39;;;;;;;4.85;3.80;;;18.30;76.90;;;;;;4999262;28;96049;-53
2022/05/26 09:23:14;;;;;;;4.15;3.75;;;18.30;77.00;;;;;;4999808;28;95954;-53
2022/05/26 09:25:51;;;;;;;4.88;4.10;;;18.30;77.10;;;;;;4999728;28;95069;-53
2022/05/26 09:28:41;;;;;;;3.97;3.60;;;18.30;77.00;;;;;;5000308;28;95178;-54
2022/05/26 09:31:21;;;;;;;5.22;3.80;;;18.30;77.10;;;;;;4999713;28;95801;-54
2022/05/26 09:34:09;;;;;;;8.83;4.23;;;18.30;77.20;;;;;;4999693;28;95227;-55
2022/05/26 09:36:46;;;;;;;4.50;4.10;;;18.20;77.20;;;;;;4999550;28;94957;-52
2022/05/26 09:39:25;;;;;;;4.05;3.63;;;18.20;77.90;;;;;;4999763;28;95034;-55
2022/05/26 09:41:59;;;;;;;4.07;3.58;;;18.20;77.20;;;;;;4999483;28;95825;-55
2022/05/26 09:44:54;;;;;;;4.32;3.90;;;18.20;77.20;;;;;;4999456;28;95275;-55
2022/05/26 09:47:48;;;;;;;4.28;3.83;;;18.20;77.20;;;;;;4999986;28;95015;-54
2022/05/26 09:50:38;;;;;;;5.65;3.75;;;18.10;77.10;;;;;;5000314;28;95312;-53
2022/05/26 09:53:12;;;;;;;4.57;3.97;;;18.10;77.10;;;;;;5000414;28;95041;-51
2022/05/26 09:55:54;;;;;;;4.40;4.00;;;18.10;77.20;;;;;;5000285;28;95228;-51
2022/05/26 09:58:36;;;;;;;5.22;3.97;;;18.10;77.10;;;;;;5000067;28;94909;-53
2022/05/26 10:01:27;;;;;;;4.70;3.73;;;18.00;77.20;;;;;;5000158;28;95178;-53
2022/05/26 10:04:04;;;;;;;4.80;4.40;;;18.00;77.20;;;;;;4999786;28;96426;-51
2022/05/26 10:07:01;;;;;;;5.82;4.20;;;18.00;77.20;;;;;;4999044;28;96027;-48
2022/05/26 10:09:46;;;;;;;5.15;4.28;;;18.00;77.20;;;;;;5000170;28;94903;-52
2022/05/26 10:12:47;;;;;;;4.03;3.63;;;18.00;77.20;;;;;;4999150;28;95121;-52
2022/05/26 10:15:48;;;;;;;4.25;3.85;;;18.00;77.20;;;;;;4999041;28;95846;-51
2022/05/26 10:18:30;;;;;;;5.35;4.15;;;18.00;77.20;;;;;;4999099;28;95437;-54
2022/05/26 10:21:23;;;;;;;4.93;4.43;;;18.10;77.30;;;;;;4981233;28;95270;-53
2022/05/26 10:24:06;;;;;;;4.28;3.88;;;18.10;77.20;;;;;;4993457;28;95216;-53
2022/05/26 10:27:13;;;;;;;5.28;4.10;;;18.10;77.40;;;;;;4998999;28;95402;-56
2022/05/26 10:29:55;;;;;;;5.45;4.07;;;18.20;77.30;;;;;;4993637;28;96290;-54
2022/05/26 10:32:44;;;;;;;5.53;3.40;;;18.20;77.20;;;;;;4997617;28;95129;-56
2022/05/26 10:35:41;;;;;;;5.30;4.63;;;18.30;77.10;;;;;;4999082;28;95003;-55
2022/05/26 10:38:42;;;;;;;6.90;4.43;;;18.30;77.00;;;;;;4998609;28;94901;-54
2022/05/26 10:41:35;;;;;;;6.60;4.27;;;18.30;77.00;;;;;;4998472;28;95242;-56
2022/05/26 10:44:44;;;;;;;4.47;4.07;;;18.30;77.00;;;;;;4999193;28;94961;-51
2022/05/26 10:47:51;;;;;;;4.45;4.05;;;18.20;76.80;;;;;;4979694;28;95284;-56
2022/05/26 10:51:01;;;;;;;4.45;3.75;;;18.20;76.90;;;;;;4984562;28;95835;-52
2022/05/26 10:53:57;;;;;;;4.40;4.00;;;18.20;76.90;;;;;;4992426;28;96040;-52
2022/05/26 10:57:06;;;;;;;5.95;4.30;;;18.20;76.90;;;;;;4999761;28;94901;-56
2022/05/26 10:59:51;;;;;;;4.55;3.97;;;18.20;77.00;;;;;;4965475;28;95412;-54
2022/05/26 11:02:29;;;;;;;4.38;3.97;;;18.20;76.90;;;;;;4996854;28;96235;-56
2022/05/26 11:05:17;;;;;;;4.95;3.92;;;18.20;76.90;;;;;;4981793;28;95444;-54
2022/05/26 11:07:53;;;;;;;3.47;3.17;;;18.10;76.90;;;;;;4998998;28;95015;-56
2022/05/26 11:10:48;;;;;;;5.60;4.68;;;18.20;76.90;;;;;;4998793;28;95129;-55
2022/05/26 11:13:25;;;;;;;3.88;3.53;;;18.30;76.80;;;;;;4979282;28;96163;-53
2022/05/26 11:19:53;;;;;;;4.85;4.35;;;18.40;76.50;;;;;;4982950;28;95152;-52
2022/05/26 11:22:30;;;;;;;5.55;5.00;;;18.40;76.30;;;;;;4997714;28;95273;-51
2022/05/26 11:25:02;;;;;;;5.28;4.75;;;18.40;76.30;;;;;;4997985;28;95934;-55
2022/05/26 11:28:01;;;;;;;5.53;4.45;;;18.30;76.30;;;;;;4998010;28;95586;-47
2022/05/26 11:37:28;;;;;;;5.97;5.13;;;18.30;76.70;;;;;;4997725;28;96006;-54
2022/05/26 11:40:10;;;;;;;7.03;5.90;;;18.40;76.60;;;;;;4979525;28;95730;-53
2022/05/26 11:42:53;;;;;;;6.22;5.22;;;18.40;76.40;;;;;;4997861;28;95004;-52
2022/05/26 11:45:34;;;;;;;6.40;4.95;;;18.40;76.40;;;;;;4997169;28;95153;-54
2022/05/26 11:48:31;;;;;;;7.75;6.18;;;18.40;76.30;;;;;;4998280;28;96452;-55
2022/05/26 11:51:27;;;;;;;13.70;7.82;;;18.30;76.20;;;;;;4998482;28;95279;-56
2022/05/26 11:54:01;;;;;;;8.70;6.93;;;18.30;76.30;;;;;;4999081;28;94956;-54
2022/05/26 11:56:41;;;;;;;8.65;6.97;;;18.40;76.30;;;;;;4998876;28;95137;-56
2022/05/26 11:59:32;;;;;;;9.10;7.90;;;18.30;76.30;;;;;;4997733;28;96541;-56
2022/05/26 12:02:07;;;;;;;9.27;7.40;;;18.40;76.20;;;;;;4997135;28;95287;-55
2022/05/26 12:04:49;;;;;;;10.50;8.05;;;18.40;76.00;;;;;;4998172;28;94873;-55
2022/05/26 12:07:24;;;;;;;8.65;7.70;;;18.40;76.10;;;;;;4981536;28;95240;-57
2022/05/26 12:09:58;;;;;;;10.45;8.88;;;18.40;76.10;;;;;;4997387;28;95090;-57
2022/05/26 12:12:36;;;;;;;10.07;8.20;;;18.50;76.10;;;;;;4980397;28;95986;-57
2022/05/26 12:15:24;;;;;;;8.52;6.97;;;18.50;76.00;;;;;;4997080;28;95245;-56
2022/05/26 12:18:18;;;;;;;9.60;7.72;;;18.40;76.00;;;;;;4997329;28;95325;-56
2022/05/26 12:21:09;;;;;;;10.30;7.65;;;18.30;76.00;;;;;;4996786;28;96358;-55
2022/05/26 12:23:42;;;;;;;12.18;8.63;;;18.30;76.00;;;;;;4997294;28;95221;-56
2022/05/26 12:26:47;;;;;;;10.43;8.02;;;18.30;76.00;;;;;;4997551;28;94926;-58
2022/05/26 12:29:44;;;;;;;8.85;7.32;;;18.30;76.00;;;;;;4997511;28;95187;-56
2022/05/26 12:32:44;;;;;;;9.65;7.15;;;18.20;76.00;;;;;;4996140;28;95928;-52
2022/05/26 12:35:45;;;;;;;10.57;7.88;;;18.20;75.90;;;;;;4995636;28;95240;-52
2022/05/26 12:38:50;;;;;;;8.53;6.83;;;18.20;76.00;;;;;;4997663;28;95437;-52
2022/05/26 12:41:50;;;;;;;8.80;7.25;;;18.20;76.00;;;;;;5000962;28;95178;-58
2022/05/26 12:44:56;;;;;;;9.75;7.68;;;18.10;76.00;;;;;;5000252;28;95812;-56
2022/05/26 12:48:09;;;;;;;13.95;7.75;;;18.10;76.00;;;;;;4999842;28;95895;-58
2022/05/26 12:50:55;;;;;;;8.38;6.93;;;18.10;75.90;;;;;;5001399;28;94917;-55
2022/05/26 12:53:35;;;;;;;10.73;8.13;;;18.00;75.90;;;;;;5001399;28;95358;-56
2022/05/26 12:56:21;;;;;;;9.38;7.65;;;18.10;75.90;;;;;;5001166;28;95771;-56
2022/05/26 12:59:05;;;;;;;9.10;7.50;;;18.10;73.90;;;;;;5000470;28;95220;-55
2022/05/26 13:01:37;;;;;;;9.35;7.65;;;18.00;75.80;;;;;;4999404;28;95002;-56
2022/05/26 13:04:21;;;;;;;9.65;7.60;;;18.00;75.90;;;;;;5001456;28;95178;-52
2022/05/26 13:06:55;;;;;;;10.85;7.30;;;18.00;75.80;;;;;;5000728;28;96389;-55
2022/05/26 13:09:33;;;;;;;10.00;7.75;;;18.00;75.80;;;;;;5000396;28;95222;-55
2022/05/26 13:12:07;;;;;;;9.40;7.85;;;18.00;75.80;;;;;;5000318;28;95000;-57
2022/05/26 13:14:47;;;;;;;9.93;6.97;;;18.00;75.90;;;;;;5000545;28;95183;-55
2022/05/26 13:17:25;;;;;;;8.50;6.35;;;17.90;75.80;;;;;;4998777;28;95962;-57
2022/05/26 13:20:01;;;;;;;9.80;6.82;;;17.90;75.80;;;;;;4981957;28;96202;-56
2022/05/26 13:22:36;;;;;;;11.20;6.95;;;17.90;75.90;;;;;;4999823;28;95000;-55
2022/05/26 13:25:19;;;;;;;7.55;5.80;;;17.90;75.90;;;;;;5000183;28;95166;-57
2022/05/26 13:28:03;;;;;;;8.65;6.63;;;17.90;75.80;;;;;;4999839;28;94894;-58
2022/05/26 13:33:50;;;;;;;7.15;6.03;;;17.90;75.90;;;;;;5000155;28;95094;-56
2022/05/26 13:36:31;;;;;;;8.95;5.82;;;17.80;75.80;;;;;;4982916;28;95263;-52
2022/05/26 13:39:17;;;;;;;7.53;5.85;;;17.80;75.90;;;;;;4996410;28;95864;-57
2022/05/26 13:41:52;;;;;;;9.25;5.72;;;17.80;75.80;;;;;;4999589;28;95362;-58
2022/05/26 13:44:43;;;;;;;6.97;5.78;;;17.80;75.80;;;;;;5000055;28;94918;-56
2022/05/26 13:47:17;;;;;;;6.53;5.43;;;17.80;75.80;;;;;;4998319;28;95130;-55
2022/05/26 13:50:06;;;;;;;7.10;5.38;;;17.80;75.80;;;;;;4982191;28;98627;-56
2022/05/26 13:52:42;;;;;;;5.93;5.13;;;17.70;75.70;;;;;;5000238;28;95267;-57
2022/05/26 13:55:18;;;;;;;5.65;4.95;;;17.70;75.70;;;;;;5000294;28;94963;-57
2022/05/26 13:57:56;;;;;;;6.70;5.13;;;17.70;75.70;;;;;;5000468;28;95361;-56
2022/05/26 14:00:38;;;;;;;6.32;5.05;;;17.70;75.70;;;;;;4999388;28;95918;-57
2022/05/26 14:03:31;;;;;;;6.50;5.22;;;17.70;75.70;;;;;;4999584;28;95186;-56
2022/05/26 14:06:08;;;;;;;6.93;5.78;;;17.70;75.70;;;;;;4999695;28;95015;-55
2022/05/26 14:08:51;;;;;;;5.90;5.13;;;17.70;75.80;;;;;;5000353;28;95071;-56
2022/05/26 14:11:28;;;;;;;6.85;6.00;;;17.70;75.80;;;;;;4999329;28;95869;-57
2022/05/26 14:14:29;;;;;;;5.82;5.03;;;17.70;75.90;;;;;;4981890;28;95242;-55
2022/05/26 14:17:02;;;;;;;6.38;5.07;;;17.70;76.00;;;;;;4997683;28;94957;-56
2022/05/26 14:19:47;;;;;;;7.82;5.85;;;17.60;75.90;;;;;;4998914;28;95230;-53
2022/05/26 14:22:25;;;;;;;5.63;5.00;;;17.60;76.10;;;;;;4999080;28;95954;-55
2022/05/26 14:24:58;;;;;;;5.63;4.53;;;17.60;76.10;;;;;;4998560;28;95861;-54
2022/05/26 14:27:50;;;;;;;7.47;5.55;;;17.60;76.10;;;;;;4999239;28;94936;-53
2022/05/26 14:30:31;;;;;;;5.30;4.35;;;17.60;76.20;;;;;;4981108;28;95364;-56
2022/05/26 14:33:24;;;;;;;5.40;4.85;;;17.50;76.10;;;;;;4998922;28;95827;-55
2022/05/26 14:35:57;;;;;;;5.50;4.65;;;17.50;76.20;;;;;;4997890;28;94979;-54
2022/05/26 14:38:29;;;;;;;5.47;4.88;;;17.50;76.30;;;;;;4998863;28;94937;-52
2022/05/26 14:41:01;;;;;;;8.57;5.20;;;17.50;76.40;;;;;;4999472;28;95187;-45
2022/05/26 14:43:38;;;;;;;5.13;4.55;;;17.50;76.40;;;;;;5000315;28;95913;-50